Tuesday, February 20, 2018, 4:16 AM EST
Back to Local

KGKJ, Port Meadville Airport

Location: Meadville, PA, United States Lat: 41.633
Local Time: 4:16 AM EST ( 9:16 GMT) Lon: -80.217
Time Zone: US/Eastern Elev: 1400 ft

Show me the last for .
Show Coded

Time T Td Feel RH Dir Speed Gust Alt SLP Vis Weather Sky Remarks
2018-02-20 03:53 60 53 - 77 200° 10 - 30.10 30.10 10 OVC075 None
2018-02-20 02:53 60 53 - 77 190° 12 17 30.09 30.09 10 OVC090 None
2018-02-20 01:53 60 54 - 80 200° 10 21 30.09 30.09 10 FEW120 None
2018-02-20 00:53 61 54 - 77 190° 12 24 30.08 30.08 10 BKN085 OVC110 6-hr Precip Total (1am): 0.02"
6-hr Min Temp (1am): 54.0°F
6-hr Max Temp (1am): 61.0°F
2018-02-19 23:53 61 55 - 80 210° 14 22 30.08 30.09 10 OVC090 24-hr Min Temp (12am): 32.0°F
24-hr Max Temp (12am): 61.0°F
2018-02-19 22:53 59 55 - 86 190° 10 - 30.08 30.09 10 BKN110 None
2018-02-19 21:53 58 55 - 90 Variable 7 - 30.08 30.09 10 OVC100 6-hr Precip Total (10pm): 0.02"
2018-02-19 20:53 56 55 - 96 Variable 6 - 30.07 30.09 10 FEW120 None
2018-02-19 19:53 55 55 - 100 Variable 6 - 30.07 30.09 10 SCT050 BKN065 BKN090 1-hr Precip Total: 0.02"
2018-02-19 18:53 54 54 - 100 180° 7 - 30.08 30.09 5 -RA BR FEW060 BKN080 OVC095 1-hr Precip Total: 0.06"
6-hr Precip Total (7pm): 0.46"
6-hr Min Temp (7pm): 46.0°F
6-hr Max Temp (7pm): 54.0°F
2018-02-19 18:30 53 53 - 100 Variable 5 - 30.07 - 6 -RA BR FEW003 BKN060 OVC085 1-hr Precip Total: 0.03"
2018-02-19 17:53 53 53 - 100 Variable 5 - 30.07 30.09 4 -RA BR BKN004 OVC070 1-hr Precip Total: 0.07"
2018-02-19 17:36 53 53 - 100 180° 8 - 30.07 - 7 -RA BKN006 BKN015 OVC075 1-hr Precip Total: 0.06"
2018-02-19 17:27 52 52 - 100 Variable 5 - 30.07 - 4 -RA BR SCT006 BKN038 OVC075 1-hr Precip Total: 0.05"
2018-02-19 17:05 52 52 - 100 170° 8 - 30.07 - 3 RA BR BKN004 OVC041 1-hr Precip Total: 0.02"
2018-02-19 16:53 52 52 - 100 Variable 6 - 30.07 30.09 2 RA BR BKN004 OVC011 1-hr Precip Total: 0.14"
2018-02-19 16:44 51 51 - 100 190° 9 - 30.08 - 2 RA BR BKN005 OVC011 1-hr Precip Total: 0.12"
2018-02-19 16:18 50 50 47 100 180° 7 - 30.08 - 2 RA BR OVC003 1-hr Precip Total: 0.05"
2018-02-19 15:53 50 50 46 100 180° 9 - 30.08 30.11 2 RA BR OVC002 1-hr Precip Total: 0.06"
6-hr Precip Total (4pm): 0.19"
2018-02-19 15:42 49 49 45 100 190° 9 - 30.08 - 2 -RA BR OVC002 1-hr Precip Total: 0.05"
2018-02-19 15:19 49 49 45 100 170° 8 - 30.08 - 6 -RA BR OVC003 1-hr Precip Total: 0.03"
2018-02-19 15:01 49 49 46 100 180° 7 - 30.08 - 3 RA BR OVC002 1-hr Precip Total: 0.01"
2018-02-19 14:53 49 49 46 100 Variable 7 - 30.08 30.10 2 +RA BR OVC003 1-hr Precip Total: 0.11"
2018-02-19 14:36 48 48 45 100 Variable 7 - 30.08 - 1 RA BR OVC003 Variable visibility
1-hr Precip Total: 0.05"
2018-02-19 13:53 47 47 43 100 170° 8 - 30.08 30.11 6 -RA BR OVC003 1-hr Precip Total: 0.02"
2018-02-19 13:00 46 46 42 100 180° 7 - 30.10 - 4 RA BR OVC003 1-hr Precip Total: 0.01"
2018-02-19 12:53 46 46 42 100 Variable 7 - 30.10 30.12 2 RA BR OVC003 1-hr Precip Total: 0.09"
6-hr Precip Total (1pm): 0.30"
6-hr Min Temp (1pm): 39.0°F
6-hr Max Temp (1pm): 46.0°F
2018-02-19 12:51 46 46 42 100 180° 9 - 30.10 - 2 RA BR OVC003 1-hr Precip Total: 0.08"
2018-02-19 12:33 45 45 40 100 200° 9 - 30.11 - 1 RA BR OVC003 1-hr Precip Total: 0.03"
2018-02-19 12:16 45 45 38 100 180° 12 17 30.11 - 2 BR BKN003 OVC007 1-hr Precip Total: Trace
2018-02-19 11:53 45 44 40 96 180° 9 - 30.10 30.13 2 -RA BR OVC006 1-hr Precip Total: Trace
2018-02-19 10:53 43 43 35 100 Variable 6 18 30.10 30.13 10 -RA BKN007 OVC010 1-hr Precip Total: 0.03"
2018-02-19 10:27 42 42 38 100 Variable 7 - 30.10 - 5 -RA BR BKN008 BKN011 OVC024 1-hr Precip Total: 0.02"
2018-02-19 10:17 42 42 37 100 170° 9 - 30.11 - 9 -RA SCT008 BKN013 OVC065 1-hr Precip Total: 0.01"
2018-02-19 10:10 42 42 37 100 180° 9 - 30.11 - 8 -RA BKN008 BKN015 OVC065 1-hr Precip Total: 0.01"
2018-02-19 09:53 41 40 36 95 Variable 7 - 30.11 30.14 10 -RA BKN010 OVC016 1-hr Precip Total: 0.04"
6-hr Precip Total (10am): 0.18"
2018-02-19 09:23 40 39 34 96 170° 9 - 30.13 - 8 -RA OVC013 1-hr Precip Total: 0.03"
2018-02-19 08:53 40 37 35 89 Variable 7 - 30.12 30.15 8 -RA BKN015 BKN065 OVC080 1-hr Precip Total: 0.14"
2018-02-19 08:32 39 36 35 88 Variable 6 - 30.14 - 3 +RA BR BKN016 OVC070 1-hr Precip Total: 0.10"
2018-02-19 07:53 40 32 36 73 Variable 6 - 30.16 30.19 10 -RA OVC040 1-hr Precip Total: Trace
2018-02-19 06:53 39 29 36 66 Variable 5 - 30.14 30.17 10 BKN070 6-hr Min Temp (7am): 33.1°F
6-hr Max Temp (7am): 39.0°F
2018-02-19 05:53 37 28 34 69 Variable 3 - 30.13 30.17 10 OVC080 None
2018-02-19 04:53 36 26 32 66 Variable 5 - 30.13 30.16 10 CLR None

Support USWX by starting your Amazon purchase here.